sensor_id;sensor_type;location;lat;lon;timestamp;P1;durP1;ratioP1;P2;durP2;ratioP2
13090;SDS011;6611;52.604;13.438;2023-02-28T00:04:01;2.50;;;1.87;;
13090;SDS011;6611;52.604;13.438;2023-02-28T00:09:04;2.30;;;1.60;;
13090;SDS011;6611;52.604;13.438;2023-02-28T00:14:06;4.03;;;2.37;;
13090;SDS011;6611;52.604;13.438;2023-02-28T00:19:08;3.47;;;2.10;;
13090;SDS011;6611;52.604;13.438;2023-02-28T00:24:11;2.70;;;2.07;;
13090;SDS011;6611;52.604;13.438;2023-02-28T00:29:13;3.07;;;1.90;;
13090;SDS011;6611;52.604;13.438;2023-02-28T00:34:15;3.70;;;2.13;;
13090;SDS011;6611;52.604;13.438;2023-02-28T00:39:18;2.97;;;1.80;;
13090;SDS011;6611;52.604;13.438;2023-02-28T00:44:20;2.57;;;1.80;;
13090;SDS011;6611;52.604;13.438;2023-02-28T00:49:22;2.40;;;1.97;;
13090;SDS011;6611;52.604;13.438;2023-02-28T00:54:25;3.27;;;2.00;;
13090;SDS011;6611;52.604;13.438;2023-02-28T00:59:27;1.77;;;1.53;;
13090;SDS011;6611;52.604;13.438;2023-02-28T01:04:29;2.70;;;1.60;;
13090;SDS011;6611;52.604;13.438;2023-02-28T01:09:33;5.17;;;1.87;;
13090;SDS011;6611;52.604;13.438;2023-02-28T01:14:34;3.17;;;2.20;;
13090;SDS011;6611;52.604;13.438;2023-02-28T01:19:36;2.20;;;1.60;;
13090;SDS011;6611;52.604;13.438;2023-02-28T01:24:39;3.73;;;1.60;;
13090;SDS011;6611;52.604;13.438;2023-02-28T01:29:41;4.10;;;1.87;;
13090;SDS011;6611;52.604;13.438;2023-02-28T01:34:42;2.43;;;1.50;;
13090;SDS011;6611;52.604;13.438;2023-02-28T01:39:45;2.80;;;1.47;;
13090;SDS011;6611;52.604;13.438;2023-02-28T01:44:58;1.93;;;1.30;;
13090;SDS011;6611;52.604;13.438;2023-02-28T01:50:06;2.10;;;1.23;;
13090;SDS011;6611;52.604;13.438;2023-02-28T01:55:12;2.37;;;1.60;;
13090;SDS011;6611;52.604;13.438;2023-02-28T02:00:16;2.00;;;1.30;;
13090;SDS011;6611;52.604;13.438;2023-02-28T02:05:20;1.93;;;1.40;;
13090;SDS011;6611;52.604;13.438;2023-02-28T02:10:27;1.50;;;1.40;;
13090;SDS011;6611;52.604;13.438;2023-02-28T02:15:34;1.93;;;1.23;;
13090;SDS011;6611;52.604;13.438;2023-02-28T02:20:46;3.40;;;1.50;;
13090;SDS011;6611;52.604;13.438;2023-02-28T02:26:07;2.17;;;1.30;;
13090;SDS011;6611;52.604;13.438;2023-02-28T02:31:33;3.90;;;1.40;;
13090;SDS011;6611;52.604;13.438;2023-02-28T02:37:00;2.10;;;1.50;;
13090;SDS011;6611;52.604;13.438;2023-02-28T02:42:11;3.77;;;1.93;;
13090;SDS011;6611;52.604;13.438;2023-02-28T02:47:17;3.70;;;1.87;;
13090;SDS011;6611;52.604;13.438;2023-02-28T02:52:23;4.57;;;1.93;;
13090;SDS011;6611;52.604;13.438;2023-02-28T02:57:32;4.07;;;1.70;;
13090;SDS011;6611;52.604;13.438;2023-02-28T03:02:37;7.73;;;2.50;;
13090;SDS011;6611;52.604;13.438;2023-02-28T03:07:42;3.83;;;2.17;;
13090;SDS011;6611;52.604;13.438;2023-02-28T03:12:48;4.43;;;2.20;;
13090;SDS011;6611;52.604;13.438;2023-02-28T03:18:01;5.50;;;2.50;;
13090;SDS011;6611;52.604;13.438;2023-02-28T03:23:15;4.60;;;2.70;;
13090;SDS011;6611;52.604;13.438;2023-02-28T03:28:22;8.67;;;2.73;;
13090;SDS011;6611;52.604;13.438;2023-02-28T03:33:32;5.00;;;2.13;;
13090;SDS011;6611;52.604;13.438;2023-02-28T03:38:39;4.10;;;2.27;;
13090;SDS011;6611;52.604;13.438;2023-02-28T03:43:45;4.00;;;2.20;;
13090;SDS011;6611;52.604;13.438;2023-02-28T03:48:53;4.13;;;2.00;;
13090;SDS011;6611;52.604;13.438;2023-02-28T03:54:04;3.10;;;1.67;;
13090;SDS011;6611;52.604;13.438;2023-02-28T03:59:09;4.43;;;2.57;;
13090;SDS011;6611;52.604;13.438;2023-02-28T04:04:16;3.40;;;2.17;;
13090;SDS011;6611;52.604;13.438;2023-02-28T04:09:19;3.93;;;1.90;;
13090;SDS011;6611;52.604;13.438;2023-02-28T04:14:21;3.27;;;1.90;;
13090;SDS011;6611;52.604;13.438;2023-02-28T04:19:23;5.87;;;2.33;;
13090;SDS011;6611;52.604;13.438;2023-02-28T04:24:27;4.97;;;2.40;;
13090;SDS011;6611;52.604;13.438;2023-02-28T04:29:29;2.13;;;1.77;;
13090;SDS011;6611;52.604;13.438;2023-02-28T04:34:32;4.00;;;1.97;;
13090;SDS011;6611;52.604;13.438;2023-02-28T04:39:36;3.03;;;1.70;;
13090;SDS011;6611;52.604;13.438;2023-02-28T04:44:38;2.80;;;1.77;;
13090;SDS011;6611;52.604;13.438;2023-02-28T04:49:39;2.97;;;2.03;;
13090;SDS011;6611;52.604;13.438;2023-02-28T04:54:44;3.70;;;1.80;;
13090;SDS011;6611;52.604;13.438;2023-02-28T04:59:45;2.53;;;1.77;;
13090;SDS011;6611;52.604;13.438;2023-02-28T05:04:47;2.70;;;1.50;;
13090;SDS011;6611;52.604;13.438;2023-02-28T05:09:50;2.67;;;1.50;;
13090;SDS011;6611;52.604;13.438;2023-02-28T05:14:53;3.40;;;2.07;;
13090;SDS011;6611;52.604;13.438;2023-02-28T05:19:54;3.53;;;2.00;;
13090;SDS011;6611;52.604;13.438;2023-02-28T05:24:57;3.83;;;2.30;;
13090;SDS011;6611;52.604;13.438;2023-02-28T05:29:59;3.37;;;2.30;;
13090;SDS011;6611;52.604;13.438;2023-02-28T05:35:03;2.00;;;1.80;;
13090;SDS011;6611;52.604;13.438;2023-02-28T05:40:08;4.33;;;1.87;;
13090;SDS011;6611;52.604;13.438;2023-02-28T05:45:11;2.50;;;1.97;;
13090;SDS011;6611;52.604;13.438;2023-02-28T05:50:13;2.00;;;1.67;;
13090;SDS011;6611;52.604;13.438;2023-02-28T05:55:16;1.97;;;1.60;;
13090;SDS011;6611;52.604;13.438;2023-02-28T06:00:18;1.87;;;1.60;;
13090;SDS011;6611;52.604;13.438;2023-02-28T06:05:20;2.57;;;2.03;;
13090;SDS011;6611;52.604;13.438;2023-02-28T06:10:23;3.70;;;2.17;;
13090;SDS011;6611;52.604;13.438;2023-02-28T06:15:25;2.40;;;1.93;;
13090;SDS011;6611;52.604;13.438;2023-02-28T06:20:27;2.40;;;1.60;;
13090;SDS011;6611;52.604;13.438;2023-02-28T06:25:30;1.83;;;1.73;;
13090;SDS011;6611;52.604;13.438;2023-02-28T06:30:32;1.40;;;1.30;;
13090;SDS011;6611;52.604;13.438;2023-02-28T06:35:34;1.97;;;1.60;;
13090;SDS011;6611;52.604;13.438;2023-02-28T06:40:37;3.00;;;1.93;;
13090;SDS011;6611;52.604;13.438;2023-02-28T06:45:41;4.57;;;1.60;;
13090;SDS011;6611;52.604;13.438;2023-02-28T06:50:43;2.20;;;2.00;;
13090;SDS011;6611;52.604;13.438;2023-02-28T06:55:46;2.80;;;1.70;;
13090;SDS011;6611;52.604;13.438;2023-02-28T07:00:50;2.70;;;1.83;;
13090;SDS011;6611;52.604;13.438;2023-02-28T07:05:53;2.53;;;1.80;;
13090;SDS011;6611;52.604;13.438;2023-02-28T07:10:57;2.67;;;1.87;;
13090;SDS011;6611;52.604;13.438;2023-02-28T07:16:00;3.40;;;2.00;;
13090;SDS011;6611;52.604;13.438;2023-02-28T07:21:03;5.20;;;2.13;;
13090;SDS011;6611;52.604;13.438;2023-02-28T07:26:07;3.27;;;1.83;;
13090;SDS011;6611;52.604;13.438;2023-02-28T07:31:13;3.93;;;2.40;;
13090;SDS011;6611;52.604;13.438;2023-02-28T07:36:16;6.73;;;2.37;;
13090;SDS011;6611;52.604;13.438;2023-02-28T07:41:21;7.10;;;2.40;;
13090;SDS011;6611;52.604;13.438;2023-02-28T07:46:27;3.50;;;2.17;;
13090;SDS011;6611;52.604;13.438;2023-02-28T07:51:35;4.37;;;2.80;;
13090;SDS011;6611;52.604;13.438;2023-02-28T07:56:38;9.97;;;3.43;;
13090;SDS011;6611;52.604;13.438;2023-02-28T08:01:39;5.00;;;3.20;;
13090;SDS011;6611;52.604;13.438;2023-02-28T08:06:41;5.83;;;3.93;;
13090;SDS011;6611;52.604;13.438;2023-02-28T08:11:44;12.80;;;5.33;;
13090;SDS011;6611;52.604;13.438;2023-02-28T08:16:46;9.10;;;5.13;;
13090;SDS011;6611;52.604;13.438;2023-02-28T08:21:47;8.23;;;4.70;;
13090;SDS011;6611;52.604;13.438;2023-02-28T08:26:51;8.30;;;4.50;;
13090;SDS011;6611;52.604;13.438;2023-02-28T08:31:52;5.87;;;3.50;;
13090;SDS011;6611;52.604;13.438;2023-02-28T08:36:54;4.13;;;2.97;;
13090;SDS011;6611;52.604;13.438;2023-02-28T08:41:57;4.87;;;2.80;;
13090;SDS011;6611;52.604;13.438;2023-02-28T08:46:59;4.40;;;2.70;;
13090;SDS011;6611;52.604;13.438;2023-02-28T08:52:00;1.57;;;1.10;;
13090;SDS011;6611;52.604;13.438;2023-02-28T08:57:03;2.83;;;1.40;;
13090;SDS011;6611;52.604;13.438;2023-02-28T09:02:05;2.53;;;1.27;;
13090;SDS011;6611;52.604;13.438;2023-02-28T09:07:07;2.67;;;1.30;;
13090;SDS011;6611;52.604;13.438;2023-02-28T09:12:10;2.30;;;1.20;;
13090;SDS011;6611;52.604;13.438;2023-02-28T09:17:12;2.27;;;1.13;;
13090;SDS011;6611;52.604;13.438;2023-02-28T09:22:13;2.60;;;1.33;;
13090;SDS011;6611;52.604;13.438;2023-02-28T09:27:17;0.87;;;0.77;;
13090;SDS011;6611;52.604;13.438;2023-02-28T09:32:19;1.73;;;0.93;;
13090;SDS011;6611;52.604;13.438;2023-02-28T09:37:21;1.37;;;0.80;;
13090;SDS011;6611;52.604;13.438;2023-02-28T09:42:27;1.80;;;1.23;;
13090;SDS011;6611;52.604;13.438;2023-02-28T09:47:33;2.03;;;1.07;;
13090;SDS011;6611;52.604;13.438;2023-02-28T09:52:37;1.50;;;1.10;;
13090;SDS011;6611;52.604;13.438;2023-02-28T09:57:40;1.27;;;0.80;;
13090;SDS011;6611;52.604;13.438;2023-02-28T10:02:53;1.27;;;0.80;;
13090;SDS011;6611;52.604;13.438;2023-02-28T10:08:05;1.77;;;1.00;;
13090;SDS011;6611;52.604;13.438;2023-02-28T10:13:16;1.30;;;0.90;;
13090;SDS011;6611;52.604;13.438;2023-02-28T10:18:24;2.60;;;1.53;;
13090;SDS011;6611;52.604;13.438;2023-02-28T10:23:31;1.70;;;1.13;;
13090;SDS011;6611;52.604;13.438;2023-02-28T10:28:37;2.27;;;1.17;;
13090;SDS011;6611;52.604;13.438;2023-02-28T10:33:39;2.63;;;1.10;;
13090;SDS011;6611;52.604;13.438;2023-02-28T10:38:42;0.80;;;0.80;;
13090;SDS011;6611;52.604;13.438;2023-02-28T10:43:45;1.57;;;1.00;;
13090;SDS011;6611;52.604;13.438;2023-02-28T10:48:48;1.50;;;1.00;;
13090;SDS011;6611;52.604;13.438;2023-02-28T10:54:00;1.80;;;1.00;;
13090;SDS011;6611;52.604;13.438;2023-02-28T10:59:05;3.93;;;1.10;;
13090;SDS011;6611;52.604;13.438;2023-02-28T11:04:32;2.37;;;1.20;;
13090;SDS011;6611;52.604;13.438;2023-02-28T11:09:38;2.33;;;1.10;;
13090;SDS011;6611;52.604;13.438;2023-02-28T11:14:48;2.00;;;1.50;;
13090;SDS011;6611;52.604;13.438;2023-02-28T11:19:52;1.30;;;1.00;;
13090;SDS011;6611;52.604;13.438;2023-02-28T11:24:57;2.50;;;1.07;;
13090;SDS011;6611;52.604;13.438;2023-02-28T11:30:03;1.27;;;1.10;;
13090;SDS011;6611;52.604;13.438;2023-02-28T11:35:24;2.47;;;1.47;;
13090;SDS011;6611;52.604;13.438;2023-02-28T11:40:31;1.80;;;1.27;;
13090;SDS011;6611;52.604;13.438;2023-02-28T11:45:44;1.47;;;1.33;;
13090;SDS011;6611;52.604;13.438;2023-02-28T11:50:57;1.07;;;0.93;;
13090;SDS011;6611;52.604;13.438;2023-02-28T11:56:08;2.30;;;1.60;;
13090;SDS011;6611;52.604;13.438;2023-02-28T12:01:23;2.50;;;1.23;;
13090;SDS011;6611;52.604;13.438;2023-02-28T12:06:40;2.30;;;1.53;;
13090;SDS011;6611;52.604;13.438;2023-02-28T12:11:51;3.03;;;1.30;;
13090;SDS011;6611;52.604;13.438;2023-02-28T12:17:00;2.83;;;1.50;;
13090;SDS011;6611;52.604;13.438;2023-02-28T12:22:14;2.07;;;1.10;;
13090;SDS011;6611;52.604;13.438;2023-02-28T12:27:29;1.37;;;1.20;;
13090;SDS011;6611;52.604;13.438;2023-02-28T12:32:36;1.87;;;1.20;;
13090;SDS011;6611;52.604;13.438;2023-02-28T12:37:43;2.47;;;1.50;;
13090;SDS011;6611;52.604;13.438;2023-02-28T12:42:49;1.47;;;1.23;;
13090;SDS011;6611;52.604;13.438;2023-02-28T12:47:55;3.03;;;1.30;;
13090;SDS011;6611;52.604;13.438;2023-02-28T12:53:02;1.23;;;1.13;;
13090;SDS011;6611;52.604;13.438;2023-02-28T12:58:08;2.70;;;1.50;;
13090;SDS011;6611;52.604;13.438;2023-02-28T13:09:02;3.93;;;1.70;;
13090;SDS011;6611;52.604;13.438;2023-02-28T13:14:18;2.70;;;1.43;;
13090;SDS011;6611;52.604;13.438;2023-02-28T13:19:25;1.73;;;1.20;;
13090;SDS011;6611;52.604;13.438;2023-02-28T13:24:40;2.47;;;1.50;;
13090;SDS011;6611;52.604;13.438;2023-02-28T13:29:45;4.43;;;1.40;;
13090;SDS011;6611;52.604;13.438;2023-02-28T13:40:30;1.70;;;1.20;;
13090;SDS011;6611;52.604;13.438;2023-02-28T13:45:37;1.90;;;1.17;;
13090;SDS011;6611;52.604;13.438;2023-02-28T13:50:39;2.10;;;1.43;;
13090;SDS011;6611;52.604;13.438;2023-02-28T13:55:44;3.70;;;1.90;;
13090;SDS011;6611;52.604;13.438;2023-02-28T14:01:00;2.37;;;1.90;;
13090;SDS011;6611;52.604;13.438;2023-02-28T14:06:16;2.67;;;1.40;;
13090;SDS011;6611;52.604;13.438;2023-02-28T14:11:27;3.27;;;1.60;;
13090;SDS011;6611;52.604;13.438;2023-02-28T14:16:39;4.30;;;1.50;;
13090;SDS011;6611;52.604;13.438;2023-02-28T14:21:49;2.27;;;1.50;;
13090;SDS011;6611;52.604;13.438;2023-02-28T14:32:41;2.47;;;1.47;;
13090;SDS011;6611;52.604;13.438;2023-02-28T14:37:48;3.60;;;1.83;;
13090;SDS011;6611;52.604;13.438;2023-02-28T14:42:55;2.77;;;2.03;;
13090;SDS011;6611;52.604;13.438;2023-02-28T14:47:59;2.53;;;1.50;;
13090;SDS011;6611;52.604;13.438;2023-02-28T14:53:03;2.37;;;1.60;;
13090;SDS011;6611;52.604;13.438;2023-02-28T14:58:19;3.10;;;1.87;;
13090;SDS011;6611;52.604;13.438;2023-02-28T15:03:27;2.47;;;1.70;;
13090;SDS011;6611;52.604;13.438;2023-02-28T15:08:32;7.43;;;5.60;;
13090;SDS011;6611;52.604;13.438;2023-02-28T15:13:38;3.67;;;2.93;;
13090;SDS011;6611;52.604;13.438;2023-02-28T15:18:43;2.90;;;1.60;;
13090;SDS011;6611;52.604;13.438;2023-02-28T15:23:50;2.17;;;1.77;;
13090;SDS011;6611;52.604;13.438;2023-02-28T15:28:57;3.67;;;1.90;;
13090;SDS011;6611;52.604;13.438;2023-02-28T15:34:02;2.17;;;1.43;;
13090;SDS011;6611;52.604;13.438;2023-02-28T15:39:17;3.73;;;2.57;;
13090;SDS011;6611;52.604;13.438;2023-02-28T15:44:26;2.43;;;1.93;;
13090;SDS011;6611;52.604;13.438;2023-02-28T15:49:33;2.93;;;1.87;;
13090;SDS011;6611;52.604;13.438;2023-02-28T15:54:40;2.47;;;1.80;;
13090;SDS011;6611;52.604;13.438;2023-02-28T15:59:48;5.97;;;2.70;;
13090;SDS011;6611;52.604;13.438;2023-02-28T16:04:56;5.13;;;2.80;;
13090;SDS011;6611;52.604;13.438;2023-02-28T16:10:00;6.87;;;2.97;;
13090;SDS011;6611;52.604;13.438;2023-02-28T16:15:06;3.43;;;2.20;;
13090;SDS011;6611;52.604;13.438;2023-02-28T16:20:12;3.03;;;2.00;;
13090;SDS011;6611;52.604;13.438;2023-02-28T16:25:15;3.80;;;2.23;;
13090;SDS011;6611;52.604;13.438;2023-02-28T16:30:20;4.57;;;2.67;;
13090;SDS011;6611;52.604;13.438;2023-02-28T16:35:24;5.20;;;2.60;;
13090;SDS011;6611;52.604;13.438;2023-02-28T16:40:26;4.90;;;3.07;;
13090;SDS011;6611;52.604;13.438;2023-02-28T16:45:30;4.07;;;2.93;;
13090;SDS011;6611;52.604;13.438;2023-02-28T16:50:34;7.07;;;3.70;;
13090;SDS011;6611;52.604;13.438;2023-02-28T16:55:36;6.63;;;3.50;;
13090;SDS011;6611;52.604;13.438;2023-02-28T17:00:39;6.77;;;3.67;;
13090;SDS011;6611;52.604;13.438;2023-02-28T17:05:41;7.83;;;3.67;;
13090;SDS011;6611;52.604;13.438;2023-02-28T17:10:43;5.90;;;3.63;;
13090;SDS011;6611;52.604;13.438;2023-02-28T17:15:47;10.90;;;4.90;;
13090;SDS011;6611;52.604;13.438;2023-02-28T17:20:49;8.70;;;4.73;;
13090;SDS011;6611;52.604;13.438;2023-02-28T17:25:50;6.63;;;4.60;;
13090;SDS011;6611;52.604;13.438;2023-02-28T17:30:55;8.77;;;4.60;;
13090;SDS011;6611;52.604;13.438;2023-02-28T17:35:57;6.97;;;3.97;;
13090;SDS011;6611;52.604;13.438;2023-02-28T17:40:59;9.07;;;3.90;;
13090;SDS011;6611;52.604;13.438;2023-02-28T17:46:02;6.27;;;3.93;;
13090;SDS011;6611;52.604;13.438;2023-02-28T17:51:05;5.77;;;4.20;;
13090;SDS011;6611;52.604;13.438;2023-02-28T17:56:09;8.40;;;4.57;;
13090;SDS011;6611;52.604;13.438;2023-02-28T18:01:14;12.23;;;5.57;;
13090;SDS011;6611;52.604;13.438;2023-02-28T18:06:18;11.07;;;4.70;;
13090;SDS011;6611;52.604;13.438;2023-02-28T18:11:22;8.37;;;5.17;;
13090;SDS011;6611;52.604;13.438;2023-02-28T18:16:26;10.47;;;5.60;;
13090;SDS011;6611;52.604;13.438;2023-02-28T18:21:27;8.27;;;5.90;;
13090;SDS011;6611;52.604;13.438;2023-02-28T18:26:29;9.17;;;5.53;;
13090;SDS011;6611;52.604;13.438;2023-02-28T18:31:32;8.00;;;5.03;;
13090;SDS011;6611;52.604;13.438;2023-02-28T18:36:34;8.60;;;5.73;;
13090;SDS011;6611;52.604;13.438;2023-02-28T18:41:36;10.67;;;5.93;;
13090;SDS011;6611;52.604;13.438;2023-02-28T18:46:39;9.80;;;5.40;;
13090;SDS011;6611;52.604;13.438;2023-02-28T18:51:41;10.20;;;5.73;;
13090;SDS011;6611;52.604;13.438;2023-02-28T18:56:44;12.87;;;6.30;;
13090;SDS011;6611;52.604;13.438;2023-02-28T19:01:47;10.20;;;6.57;;
13090;SDS011;6611;52.604;13.438;2023-02-28T19:06:49;12.50;;;7.87;;
13090;SDS011;6611;52.604;13.438;2023-02-28T19:11:50;22.83;;;10.17;;
13090;SDS011;6611;52.604;13.438;2023-02-28T19:16:53;25.80;;;11.63;;
13090;SDS011;6611;52.604;13.438;2023-02-28T19:21:55;21.80;;;10.17;;
13090;SDS011;6611;52.604;13.438;2023-02-28T19:26:57;13.23;;;7.97;;
13090;SDS011;6611;52.604;13.438;2023-02-28T19:32:00;15.67;;;7.53;;
13090;SDS011;6611;52.604;13.438;2023-02-28T19:37:03;9.80;;;5.93;;
13090;SDS011;6611;52.604;13.438;2023-02-28T19:42:05;8.23;;;4.63;;
13090;SDS011;6611;52.604;13.438;2023-02-28T19:47:08;5.53;;;4.13;;
13090;SDS011;6611;52.604;13.438;2023-02-28T19:52:10;7.63;;;4.20;;
13090;SDS011;6611;52.604;13.438;2023-02-28T19:57:11;5.17;;;3.97;;
13090;SDS011;6611;52.604;13.438;2023-02-28T20:02:15;8.27;;;4.23;;
13090;SDS011;6611;52.604;13.438;2023-02-28T20:07:19;5.27;;;3.50;;
13090;SDS011;6611;52.604;13.438;2023-02-28T20:12:21;5.97;;;3.43;;
13090;SDS011;6611;52.604;13.438;2023-02-28T20:17:24;4.80;;;3.40;;
13090;SDS011;6611;52.604;13.438;2023-02-28T20:22:26;5.83;;;3.20;;
13090;SDS011;6611;52.604;13.438;2023-02-28T20:27:28;7.07;;;3.40;;
13090;SDS011;6611;52.604;13.438;2023-02-28T20:32:33;7.50;;;4.60;;
13090;SDS011;6611;52.604;13.438;2023-02-28T20:37:38;9.00;;;4.67;;
13090;SDS011;6611;52.604;13.438;2023-02-28T20:42:39;10.07;;;5.33;;
13090;SDS011;6611;52.604;13.438;2023-02-28T20:47:42;8.07;;;4.93;;
13090;SDS011;6611;52.604;13.438;2023-02-28T20:52:44;11.17;;;5.33;;
13090;SDS011;6611;52.604;13.438;2023-02-28T20:57:46;10.60;;;5.37;;
13090;SDS011;6611;52.604;13.438;2023-02-28T21:02:50;5.60;;;3.83;;
13090;SDS011;6611;52.604;13.438;2023-02-28T21:07:52;6.13;;;4.13;;
13090;SDS011;6611;52.604;13.438;2023-02-28T21:12:53;6.57;;;3.97;;
13090;SDS011;6611;52.604;13.438;2023-02-28T21:17:58;6.70;;;3.90;;
13090;SDS011;6611;52.604;13.438;2023-02-28T21:23:00;5.83;;;3.67;;
13090;SDS011;6611;52.604;13.438;2023-02-28T21:28:01;6.23;;;3.93;;
13090;SDS011;6611;52.604;13.438;2023-02-28T21:33:04;3.80;;;2.80;;
13090;SDS011;6611;52.604;13.438;2023-02-28T21:38:06;5.77;;;3.03;;
13090;SDS011;6611;52.604;13.438;2023-02-28T21:43:08;3.33;;;2.80;;
13090;SDS011;6611;52.604;13.438;2023-02-28T21:48:11;3.83;;;2.57;;
13090;SDS011;6611;52.604;13.438;2023-02-28T21:53:12;4.17;;;3.00;;
13090;SDS011;6611;52.604;13.438;2023-02-28T21:58:14;6.47;;;3.30;;
13090;SDS011;6611;52.604;13.438;2023-02-28T22:03:17;3.60;;;2.77;;
13090;SDS011;6611;52.604;13.438;2023-02-28T22:08:19;4.43;;;3.13;;
13090;SDS011;6611;52.604;13.438;2023-02-28T22:13:21;6.27;;;3.40;;
13090;SDS011;6611;52.604;13.438;2023-02-28T22:18:24;6.20;;;3.50;;
13090;SDS011;6611;52.604;13.438;2023-02-28T22:23:26;4.03;;;2.57;;
13090;SDS011;6611;52.604;13.438;2023-02-28T22:28:28;4.10;;;3.00;;
13090;SDS011;6611;52.604;13.438;2023-02-28T22:33:31;4.13;;;2.90;;
13090;SDS011;6611;52.604;13.438;2023-02-28T22:38:33;4.37;;;3.27;;
13090;SDS011;6611;52.604;13.438;2023-02-28T22:43:38;6.73;;;3.23;;
13090;SDS011;6611;52.604;13.438;2023-02-28T22:48:42;6.27;;;4.00;;
13090;SDS011;6611;52.604;13.438;2023-02-28T22:53:44;4.57;;;2.47;;
13090;SDS011;6611;52.604;13.438;2023-02-28T22:58:47;4.63;;;3.17;;
13090;SDS011;6611;52.604;13.438;2023-02-28T23:03:51;4.47;;;3.43;;
13090;SDS011;6611;52.604;13.438;2023-02-28T23:08:54;6.37;;;3.47;;
13090;SDS011;6611;52.604;13.438;2023-02-28T23:13:57;6.33;;;3.27;;
13090;SDS011;6611;52.604;13.438;2023-02-28T23:19:01;5.30;;;3.43;;
13090;SDS011;6611;52.604;13.438;2023-02-28T23:24:06;3.87;;;2.83;;
13090;SDS011;6611;52.604;13.438;2023-02-28T23:29:10;6.67;;;3.40;;
13090;SDS011;6611;52.604;13.438;2023-02-28T23:34:14;4.07;;;2.70;;
13090;SDS011;6611;52.604;13.438;2023-02-28T23:39:24;8.00;;;3.97;;
13090;SDS011;6611;52.604;13.438;2023-02-28T23:44:27;11.30;;;4.60;;
13090;SDS011;6611;52.604;13.438;2023-02-28T23:49:32;7.67;;;4.40;;
13090;SDS011;6611;52.604;13.438;2023-02-28T23:54:34;5.67;;;3.57;;
13090;SDS011;6611;52.604;13.438;2023-02-28T23:59:35;8.17;;;4.57;;
